sensor_id;sensor_type;location;lat;lon;timestamp;temperature;humidity
2907;DHT22;1463;51.070;16.998;2023-08-24T00:02:13;22.30;99.90
2907;DHT22;1463;51.070;16.998;2023-08-24T00:04:39;22.30;99.90
2907;DHT22;1463;51.070;16.998;2023-08-24T00:07:07;22.30;99.90
2907;DHT22;1463;51.070;16.998;2023-08-24T00:09:33;22.30;99.90
2907;DHT22;1463;51.070;16.998;2023-08-24T00:12:00;22.30;99.90
2907;DHT22;1463;51.070;16.998;2023-08-24T00:14:27;22.30;99.90
2907;DHT22;1463;51.070;16.998;2023-08-24T00:16:56;22.30;99.90
2907;DHT22;1463;51.070;16.998;2023-08-24T00:19:22;22.30;99.90
2907;DHT22;1463;51.070;16.998;2023-08-24T00:21:49;22.30;99.90
2907;DHT22;1463;51.070;16.998;2023-08-24T00:24:16;22.30;99.90
2907;DHT22;1463;51.070;16.998;2023-08-24T00:26:43;22.30;99.90
2907;DHT22;1463;51.070;16.998;2023-08-24T00:29:09;22.20;99.90
2907;DHT22;1463;51.070;16.998;2023-08-24T00:31:36;22.20;99.90
2907;DHT22;1463;51.070;16.998;2023-08-24T00:34:04;22.20;99.90
2907;DHT22;1463;51.070;16.998;2023-08-24T00:36:31;22.20;99.90
2907;DHT22;1463;51.070;16.998;2023-08-24T00:38:59;22.20;99.90
2907;DHT22;1463;51.070;16.998;2023-08-24T00:41:26;22.10;99.90
2907;DHT22;1463;51.070;16.998;2023-08-24T00:43:55;22.10;99.90
2907;DHT22;1463;51.070;16.998;2023-08-24T00:46:21;22.00;99.90
2907;DHT22;1463;51.070;16.998;2023-08-24T00:48:53;22.00;99.90
2907;DHT22;1463;51.070;16.998;2023-08-24T00:51:24;22.00;99.90
2907;DHT22;1463;51.070;16.998;2023-08-24T00:53:52;22.00;99.90
2907;DHT22;1463;51.070;16.998;2023-08-24T00:56:20;22.00;99.90
2907;DHT22;1463;51.070;16.998;2023-08-24T00:58:50;22.10;99.90
2907;DHT22;1463;51.070;16.998;2023-08-24T01:01:17;22.00;99.90
2907;DHT22;1463;51.070;16.998;2023-08-24T01:03:44;21.90;99.90
2907;DHT22;1463;51.070;16.998;2023-08-24T01:06:11;21.90;99.90
2907;DHT22;1463;51.070;16.998;2023-08-24T01:08:39;21.90;99.90
2907;DHT22;1463;51.070;16.998;2023-08-24T01:11:11;21.90;99.90
2907;DHT22;1463;51.070;16.998;2023-08-24T01:13:43;21.90;99.90
2907;DHT22;1463;51.070;16.998;2023-08-24T01:16:18;21.90;99.90
2907;DHT22;1463;51.070;16.998;2023-08-24T01:18:47;21.80;99.90
2907;DHT22;1463;51.070;16.998;2023-08-24T01:21:15;21.90;99.90
2907;DHT22;1463;51.070;16.998;2023-08-24T01:23:46;21.90;99.90
2907;DHT22;1463;51.070;16.998;2023-08-24T01:26:18;21.90;99.90
2907;DHT22;1463;51.070;16.998;2023-08-24T01:28:46;21.90;99.90
2907;DHT22;1463;51.070;16.998;2023-08-24T01:31:13;21.80;99.90
2907;DHT22;1463;51.070;16.998;2023-08-24T01:33:41;21.70;99.90
2907;DHT22;1463;51.070;16.998;2023-08-24T01:36:08;21.70;99.90
2907;DHT22;1463;51.070;16.998;2023-08-24T01:38:36;21.70;99.90
2907;DHT22;1463;51.070;16.998;2023-08-24T01:41:11;21.70;99.90
2907;DHT22;1463;51.070;16.998;2023-08-24T01:43:42;21.70;99.90
2907;DHT22;1463;51.070;16.998;2023-08-24T01:46:11;21.60;99.90
2907;DHT22;1463;51.070;16.998;2023-08-24T01:48:40;21.50;99.90
2907;DHT22;1463;51.070;16.998;2023-08-24T01:51:07;21.60;99.90
2907;DHT22;1463;51.070;16.998;2023-08-24T01:53:39;21.60;99.90
2907;DHT22;1463;51.070;16.998;2023-08-24T01:56:09;21.60;99.90
2907;DHT22;1463;51.070;16.998;2023-08-24T01:58:36;21.70;99.90
2907;DHT22;1463;51.070;16.998;2023-08-24T02:01:04;21.60;99.90
2907;DHT22;1463;51.070;16.998;2023-08-24T02:03:31;21.60;99.90
2907;DHT22;1463;51.070;16.998;2023-08-24T02:05:58;21.60;99.90
2907;DHT22;1463;51.070;16.998;2023-08-24T02:08:25;21.60;99.90
2907;DHT22;1463;51.070;16.998;2023-08-24T02:10:52;21.60;99.90
2907;DHT22;1463;51.070;16.998;2023-08-24T02:13:21;21.50;99.90
2907;DHT22;1463;51.070;16.998;2023-08-24T02:15:48;21.50;99.90
2907;DHT22;1463;51.070;16.998;2023-08-24T02:18:16;21.60;99.90
2907;DHT22;1463;51.070;16.998;2023-08-24T02:20:43;21.60;99.90
2907;DHT22;1463;51.070;16.998;2023-08-24T02:23:10;21.50;99.90
2907;DHT22;1463;51.070;16.998;2023-08-24T02:25:42;21.50;99.90
2907;DHT22;1463;51.070;16.998;2023-08-24T02:28:11;21.50;99.90
2907;DHT22;1463;51.070;16.998;2023-08-24T02:30:38;21.40;99.90
2907;DHT22;1463;51.070;16.998;2023-08-24T02:33:05;21.40;99.90
2907;DHT22;1463;51.070;16.998;2023-08-24T02:35:33;21.40;99.90
2907;DHT22;1463;51.070;16.998;2023-08-24T02:38:00;21.40;99.90
2907;DHT22;1463;51.070;16.998;2023-08-24T02:40:27;21.40;99.90
2907;DHT22;1463;51.070;16.998;2023-08-24T02:42:53;21.40;99.90
2907;DHT22;1463;51.070;16.998;2023-08-24T02:45:20;21.40;99.90
2907;DHT22;1463;51.070;16.998;2023-08-24T02:47:47;21.30;99.90
2907;DHT22;1463;51.070;16.998;2023-08-24T02:50:14;21.30;99.90
2907;DHT22;1463;51.070;16.998;2023-08-24T02:52:42;21.30;99.90
2907;DHT22;1463;51.070;16.998;2023-08-24T02:55:11;21.20;99.90
2907;DHT22;1463;51.070;16.998;2023-08-24T02:57:38;21.20;99.90
2907;DHT22;1463;51.070;16.998;2023-08-24T03:00:06;21.30;99.90
2907;DHT22;1463;51.070;16.998;2023-08-24T03:02:35;21.20;99.90
2907;DHT22;1463;51.070;16.998;2023-08-24T03:05:02;21.20;99.90
2907;DHT22;1463;51.070;16.998;2023-08-24T03:07:29;21.10;99.90
2907;DHT22;1463;51.070;16.998;2023-08-24T03:09:57;21.10;99.90
2907;DHT22;1463;51.070;16.998;2023-08-24T03:12:24;21.10;99.90
2907;DHT22;1463;51.070;16.998;2023-08-24T03:14:51;21.00;99.90
2907;DHT22;1463;51.070;16.998;2023-08-24T03:17:18;21.00;99.90
2907;DHT22;1463;51.070;16.998;2023-08-24T03:19:45;21.10;99.90
2907;DHT22;1463;51.070;16.998;2023-08-24T03:22:12;21.00;99.90
2907;DHT22;1463;51.070;16.998;2023-08-24T03:24:40;21.00;99.90
2907;DHT22;1463;51.070;16.998;2023-08-24T03:27:08;21.00;99.90
2907;DHT22;1463;51.070;16.998;2023-08-24T03:29:35;20.90;99.90
2907;DHT22;1463;51.070;16.998;2023-08-24T03:32:04;21.00;99.90
2907;DHT22;1463;51.070;16.998;2023-08-24T03:34:32;21.00;99.90
2907;DHT22;1463;51.070;16.998;2023-08-24T03:36:59;21.00;99.90
2907;DHT22;1463;51.070;16.998;2023-08-24T03:39:26;21.00;99.90
2907;DHT22;1463;51.070;16.998;2023-08-24T03:41:53;21.00;99.90
2907;DHT22;1463;51.070;16.998;2023-08-24T03:44:21;21.00;99.90
2907;DHT22;1463;51.070;16.998;2023-08-24T03:46:47;21.00;99.90
2907;DHT22;1463;51.070;16.998;2023-08-24T03:49:14;21.00;99.90
2907;DHT22;1463;51.070;16.998;2023-08-24T03:51:41;21.00;99.90
2907;DHT22;1463;51.070;16.998;2023-08-24T03:54:10;20.90;99.90
2907;DHT22;1463;51.070;16.998;2023-08-24T03:56:38;20.90;99.90
2907;DHT22;1463;51.070;16.998;2023-08-24T03:59:05;20.90;99.90
2907;DHT22;1463;51.070;16.998;2023-08-24T04:01:33;20.90;99.90
2907;DHT22;1463;51.070;16.998;2023-08-24T04:04:02;20.90;99.90
2907;DHT22;1463;51.070;16.998;2023-08-24T04:06:28;20.90;99.90
2907;DHT22;1463;51.070;16.998;2023-08-24T04:08:55;20.80;99.90
2907;DHT22;1463;51.070;16.998;2023-08-24T04:11:22;20.80;99.90
2907;DHT22;1463;51.070;16.998;2023-08-24T04:13:49;20.70;99.90
2907;DHT22;1463;51.070;16.998;2023-08-24T04:16:18;20.70;99.90
2907;DHT22;1463;51.070;16.998;2023-08-24T04:18:49;20.70;99.90
2907;DHT22;1463;51.070;16.998;2023-08-24T04:21:16;20.70;99.90
2907;DHT22;1463;51.070;16.998;2023-08-24T04:23:43;20.80;99.90
2907;DHT22;1463;51.070;16.998;2023-08-24T04:26:12;20.80;99.90
2907;DHT22;1463;51.070;16.998;2023-08-24T04:28:39;20.60;99.90
2907;DHT22;1463;51.070;16.998;2023-08-24T04:31:06;20.70;99.90
2907;DHT22;1463;51.070;16.998;2023-08-24T04:33:33;20.60;99.90
2907;DHT22;1463;51.070;16.998;2023-08-24T04:36:01;20.50;99.90
2907;DHT22;1463;51.070;16.998;2023-08-24T04:38:29;20.50;99.90
2907;DHT22;1463;51.070;16.998;2023-08-24T04:40:56;20.40;99.90
2907;DHT22;1463;51.070;16.998;2023-08-24T04:43:24;20.40;99.90
2907;DHT22;1463;51.070;16.998;2023-08-24T04:45:53;20.50;99.90
2907;DHT22;1463;51.070;16.998;2023-08-24T04:48:20;20.60;99.90
2907;DHT22;1463;51.070;16.998;2023-08-24T04:50:47;20.60;99.90
2907;DHT22;1463;51.070;16.998;2023-08-24T04:53:17;20.60;99.90
2907;DHT22;1463;51.070;16.998;2023-08-24T04:55:44;20.60;99.90
2907;DHT22;1463;51.070;16.998;2023-08-24T04:58:12;20.60;99.90
2907;DHT22;1463;51.070;16.998;2023-08-24T05:00:40;20.60;99.90
2907;DHT22;1463;51.070;16.998;2023-08-24T05:03:08;20.60;99.90
2907;DHT22;1463;51.070;16.998;2023-08-24T05:05:36;20.60;99.90
2907;DHT22;1463;51.070;16.998;2023-08-24T05:08:04;20.60;99.90
2907;DHT22;1463;51.070;16.998;2023-08-24T05:10:36;20.60;99.90
2907;DHT22;1463;51.070;16.998;2023-08-24T05:13:03;20.60;99.90
2907;DHT22;1463;51.070;16.998;2023-08-24T05:15:31;20.60;99.90
2907;DHT22;1463;51.070;16.998;2023-08-24T05:17:58;20.60;99.90
2907;DHT22;1463;51.070;16.998;2023-08-24T05:20:25;20.60;99.90
2907;DHT22;1463;51.070;16.998;2023-08-24T05:22:52;20.70;99.90
2907;DHT22;1463;51.070;16.998;2023-08-24T05:25:20;20.80;99.90
2907;DHT22;1463;51.070;16.998;2023-08-24T05:27:48;20.70;99.90
2907;DHT22;1463;51.070;16.998;2023-08-24T05:30:15;20.70;99.90
2907;DHT22;1463;51.070;16.998;2023-08-24T05:32:42;20.70;99.90
2907;DHT22;1463;51.070;16.998;2023-08-24T05:35:09;20.70;99.90
2907;DHT22;1463;51.070;16.998;2023-08-24T05:37:37;20.80;99.90
2907;DHT22;1463;51.070;16.998;2023-08-24T05:40:05;20.80;99.90
2907;DHT22;1463;51.070;16.998;2023-08-24T05:42:32;20.80;99.90
2907;DHT22;1463;51.070;16.998;2023-08-24T05:45:02;20.80;99.90
2907;DHT22;1463;51.070;16.998;2023-08-24T05:47:30;20.80;99.90
2907;DHT22;1463;51.070;16.998;2023-08-24T05:49:57;20.80;99.90
2907;DHT22;1463;51.070;16.998;2023-08-24T05:52:24;20.90;99.90
2907;DHT22;1463;51.070;16.998;2023-08-24T05:54:50;20.90;99.90
2907;DHT22;1463;51.070;16.998;2023-08-24T05:57:17;21.00;99.90
2907;DHT22;1463;51.070;16.998;2023-08-24T05:59:44;21.00;99.90
2907;DHT22;1463;51.070;16.998;2023-08-24T06:02:12;21.00;99.90
2907;DHT22;1463;51.070;16.998;2023-08-24T06:04:39;21.10;99.90
2907;DHT22;1463;51.070;16.998;2023-08-24T06:07:06;21.10;99.90
2907;DHT22;1463;51.070;16.998;2023-08-24T06:09:32;21.20;99.90
2907;DHT22;1463;51.070;16.998;2023-08-24T06:12:00;21.20;99.90
2907;DHT22;1463;51.070;16.998;2023-08-24T06:14:27;21.30;99.90
2907;DHT22;1463;51.070;16.998;2023-08-24T06:16:53;21.20;99.90
2907;DHT22;1463;51.070;16.998;2023-08-24T06:19:23;21.20;99.90
2907;DHT22;1463;51.070;16.998;2023-08-24T06:21:50;21.30;99.90
2907;DHT22;1463;51.070;16.998;2023-08-24T06:24:17;21.30;99.90
2907;DHT22;1463;51.070;16.998;2023-08-24T06:26:44;21.30;99.90
2907;DHT22;1463;51.070;16.998;2023-08-24T06:29:10;21.30;99.90
2907;DHT22;1463;51.070;16.998;2023-08-24T06:31:37;21.30;99.90
2907;DHT22;1463;51.070;16.998;2023-08-24T06:34:04;21.40;99.90
2907;DHT22;1463;51.070;16.998;2023-08-24T06:36:35;21.50;99.90
2907;DHT22;1463;51.070;16.998;2023-08-24T06:39:02;21.50;99.90
2907;DHT22;1463;51.070;16.998;2023-08-24T06:41:33;21.40;99.90
2907;DHT22;1463;51.070;16.998;2023-08-24T06:43:59;21.40;99.90
2907;DHT22;1463;51.070;16.998;2023-08-24T06:46:26;21.30;99.90
2907;DHT22;1463;51.070;16.998;2023-08-24T06:48:53;21.30;99.90
2907;DHT22;1463;51.070;16.998;2023-08-24T06:51:20;21.30;99.90
2907;DHT22;1463;51.070;16.998;2023-08-24T06:53:51;21.40;99.90
2907;DHT22;1463;51.070;16.998;2023-08-24T06:56:20;21.50;99.90
2907;DHT22;1463;51.070;16.998;2023-08-24T06:58:48;21.50;99.90
2907;DHT22;1463;51.070;16.998;2023-08-24T07:01:14;21.70;99.90
2907;DHT22;1463;51.070;16.998;2023-08-24T07:03:41;21.70;99.90
2907;DHT22;1463;51.070;16.998;2023-08-24T07:06:08;21.80;99.90
2907;DHT22;1463;51.070;16.998;2023-08-24T07:08:37;21.70;99.90
2907;DHT22;1463;51.070;16.998;2023-08-24T07:11:06;21.70;99.90
2907;DHT22;1463;51.070;16.998;2023-08-24T07:13:33;21.80;99.90
2907;DHT22;1463;51.070;16.998;2023-08-24T07:16:00;21.90;99.90
2907;DHT22;1463;51.070;16.998;2023-08-24T07:18:28;21.90;99.90
2907;DHT22;1463;51.070;16.998;2023-08-24T07:20:55;22.00;99.90
2907;DHT22;1463;51.070;16.998;2023-08-24T07:23:22;22.00;99.90
2907;DHT22;1463;51.070;16.998;2023-08-24T07:25:51;22.10;99.90
2907;DHT22;1463;51.070;16.998;2023-08-24T07:28:19;22.10;99.90
2907;DHT22;1463;51.070;16.998;2023-08-24T07:30:46;22.30;99.90
2907;DHT22;1463;51.070;16.998;2023-08-24T07:33:13;22.40;99.90
2907;DHT22;1463;51.070;16.998;2023-08-24T07:35:41;22.40;99.90
2907;DHT22;1463;51.070;16.998;2023-08-24T07:38:07;22.40;99.90
2907;DHT22;1463;51.070;16.998;2023-08-24T07:40:34;22.50;99.90
2907;DHT22;1463;51.070;16.998;2023-08-24T07:43:01;22.50;99.90
2907;DHT22;1463;51.070;16.998;2023-08-24T07:45:29;22.60;99.90
2907;DHT22;1463;51.070;16.998;2023-08-24T07:47:56;22.60;99.90
2907;DHT22;1463;51.070;16.998;2023-08-24T07:50:23;22.70;99.90
2907;DHT22;1463;51.070;16.998;2023-08-24T07:52:50;22.70;99.90
2907;DHT22;1463;51.070;16.998;2023-08-24T07:55:17;22.80;99.90
2907;DHT22;1463;51.070;16.998;2023-08-24T07:57:43;22.90;99.90
2907;DHT22;1463;51.070;16.998;2023-08-24T08:00:12;22.90;99.90
2907;DHT22;1463;51.070;16.998;2023-08-24T08:02:43;23.00;99.90
2907;DHT22;1463;51.070;16.998;2023-08-24T08:05:10;23.10;99.90
2907;DHT22;1463;51.070;16.998;2023-08-24T08:07:42;23.20;99.90
2907;DHT22;1463;51.070;16.998;2023-08-24T08:10:09;23.20;99.90
2907;DHT22;1463;51.070;16.998;2023-08-24T08:12:36;23.40;99.90
2907;DHT22;1463;51.070;16.998;2023-08-24T08:15:03;23.40;99.90
2907;DHT22;1463;51.070;16.998;2023-08-24T08:17:30;23.40;99.90
2907;DHT22;1463;51.070;16.998;2023-08-24T08:20:00;23.50;99.90
2907;DHT22;1463;51.070;16.998;2023-08-24T08:22:28;23.60;99.90
2907;DHT22;1463;51.070;16.998;2023-08-24T08:24:54;23.70;99.90
2907;DHT22;1463;51.070;16.998;2023-08-24T08:27:22;23.70;99.90
2907;DHT22;1463;51.070;16.998;2023-08-24T08:29:49;23.80;99.90
2907;DHT22;1463;51.070;16.998;2023-08-24T08:32:16;24.00;99.90
2907;DHT22;1463;51.070;16.998;2023-08-24T08:34:43;24.10;99.90
2907;DHT22;1463;51.070;16.998;2023-08-24T08:37:11;24.20;99.90
2907;DHT22;1463;51.070;16.998;2023-08-24T08:39:38;24.30;99.90
2907;DHT22;1463;51.070;16.998;2023-08-24T08:42:04;24.40;99.90
2907;DHT22;1463;51.070;16.998;2023-08-24T08:44:37;24.50;99.90
2907;DHT22;1463;51.070;16.998;2023-08-24T08:47:04;24.60;99.90
2907;DHT22;1463;51.070;16.998;2023-08-24T08:49:34;24.60;99.90
2907;DHT22;1463;51.070;16.998;2023-08-24T08:52:02;24.70;99.90
2907;DHT22;1463;51.070;16.998;2023-08-24T08:54:30;24.80;99.90
2907;DHT22;1463;51.070;16.998;2023-08-24T08:56:58;24.90;99.90
2907;DHT22;1463;51.070;16.998;2023-08-24T08:59:26;25.00;99.90
2907;DHT22;1463;51.070;16.998;2023-08-24T09:01:55;25.00;99.90
2907;DHT22;1463;51.070;16.998;2023-08-24T09:04:23;25.00;99.90
2907;DHT22;1463;51.070;16.998;2023-08-24T09:06:53;25.10;99.90
2907;DHT22;1463;51.070;16.998;2023-08-24T09:09:21;25.10;99.90
2907;DHT22;1463;51.070;16.998;2023-08-24T09:11:52;25.20;99.90
2907;DHT22;1463;51.070;16.998;2023-08-24T09:14:19;25.30;99.90
2907;DHT22;1463;51.070;16.998;2023-08-24T09:16:46;25.40;99.90
2907;DHT22;1463;51.070;16.998;2023-08-24T09:19:12;25.50;99.90
2907;DHT22;1463;51.070;16.998;2023-08-24T09:21:39;25.50;99.90
2907;DHT22;1463;51.070;16.998;2023-08-24T09:24:08;25.50;99.90
2907;DHT22;1463;51.070;16.998;2023-08-24T09:26:36;25.50;99.90
2907;DHT22;1463;51.070;16.998;2023-08-24T09:29:14;25.60;99.90
2907;DHT22;1463;51.070;16.998;2023-08-24T09:31:41;25.60;99.90
2907;DHT22;1463;51.070;16.998;2023-08-24T09:34:10;25.70;99.90
2907;DHT22;1463;51.070;16.998;2023-08-24T09:36:38;25.70;99.90
2907;DHT22;1463;51.070;16.998;2023-08-24T09:39:05;25.70;99.90
2907;DHT22;1463;51.070;16.998;2023-08-24T09:41:38;25.70;99.90
2907;DHT22;1463;51.070;16.998;2023-08-24T09:44:06;25.80;99.90
2907;DHT22;1463;51.070;16.998;2023-08-24T09:46:35;25.80;99.90
2907;DHT22;1463;51.070;16.998;2023-08-24T09:49:04;25.80;99.90
2907;DHT22;1463;51.070;16.998;2023-08-24T09:51:32;25.90;99.90
2907;DHT22;1463;51.070;16.998;2023-08-24T09:54:02;25.90;99.90
2907;DHT22;1463;51.070;16.998;2023-08-24T09:56:35;25.90;99.90
2907;DHT22;1463;51.070;16.998;2023-08-24T09:59:10;26.00;99.90
2907;DHT22;1463;51.070;16.998;2023-08-24T10:01:41;26.00;99.90
2907;DHT22;1463;51.070;16.998;2023-08-24T10:04:09;26.00;99.90
2907;DHT22;1463;51.070;16.998;2023-08-24T10:06:41;26.00;99.90
2907;DHT22;1463;51.070;16.998;2023-08-24T10:09:14;26.10;99.90
2907;DHT22;1463;51.070;16.998;2023-08-24T10:11:49;26.10;99.90
2907;DHT22;1463;51.070;16.998;2023-08-24T10:14:23;26.20;99.90
2907;DHT22;1463;51.070;16.998;2023-08-24T10:16:53;26.10;99.90
2907;DHT22;1463;51.070;16.998;2023-08-24T10:19:21;26.20;99.90
2907;DHT22;1463;51.070;16.998;2023-08-24T10:21:49;26.20;99.90
2907;DHT22;1463;51.070;16.998;2023-08-24T10:24:17;26.30;99.90
2907;DHT22;1463;51.070;16.998;2023-08-24T10:26:47;26.30;99.90
2907;DHT22;1463;51.070;16.998;2023-08-24T10:29:15;26.30;99.90
2907;DHT22;1463;51.070;16.998;2023-08-24T10:31:43;26.30;99.90
2907;DHT22;1463;51.070;16.998;2023-08-24T10:34:12;26.40;99.90
2907;DHT22;1463;51.070;16.998;2023-08-24T10:36:39;26.50;99.90
2907;DHT22;1463;51.070;16.998;2023-08-24T10:39:06;26.50;99.90
2907;DHT22;1463;51.070;16.998;2023-08-24T10:41:47;26.50;99.90
2907;DHT22;1463;51.070;16.998;2023-08-24T10:44:20;26.50;99.90
2907;DHT22;1463;51.070;16.998;2023-08-24T10:47:17;26.50;99.90
2907;DHT22;1463;51.070;16.998;2023-08-24T10:49:58;26.60;99.90
2907;DHT22;1463;51.070;16.998;2023-08-24T10:52:32;26.60;99.90
2907;DHT22;1463;51.070;16.998;2023-08-24T10:55:00;26.70;99.90
2907;DHT22;1463;51.070;16.998;2023-08-24T10:57:37;26.70;99.90
2907;DHT22;1463;51.070;16.998;2023-08-24T11:00:05;26.80;99.80
2907;DHT22;1463;51.070;16.998;2023-08-24T11:02:41;26.90;99.90
2907;DHT22;1463;51.070;16.998;2023-08-24T11:05:26;26.90;99.90
2907;DHT22;1463;51.070;16.998;2023-08-24T11:07:58;26.90;99.70
2907;DHT22;1463;51.070;16.998;2023-08-24T11:10:28;26.80;99.60
2907;DHT22;1463;51.070;16.998;2023-08-24T11:13:10;26.80;97.70
2907;DHT22;1463;51.070;16.998;2023-08-24T11:15:45;26.80;99.20
2907;DHT22;1463;51.070;16.998;2023-08-24T11:18:20;26.90;98.00
2907;DHT22;1463;51.070;16.998;2023-08-24T11:20:50;27.00;98.20
2907;DHT22;1463;51.070;16.998;2023-08-24T11:23:18;27.00;97.60
2907;DHT22;1463;51.070;16.998;2023-08-24T11:25:45;27.00;98.40
2907;DHT22;1463;51.070;16.998;2023-08-24T11:28:17;27.00;98.20
2907;DHT22;1463;51.070;16.998;2023-08-24T11:30:44;27.00;97.00
2907;DHT22;1463;51.070;16.998;2023-08-24T11:33:12;27.00;97.80
2907;DHT22;1463;51.070;16.998;2023-08-24T11:35:40;27.00;97.30
2907;DHT22;1463;51.070;16.998;2023-08-24T11:38:13;27.10;97.60
2907;DHT22;1463;51.070;16.998;2023-08-24T11:40:40;27.10;97.20
2907;DHT22;1463;51.070;16.998;2023-08-24T11:43:08;27.10;95.50
2907;DHT22;1463;51.070;16.998;2023-08-24T11:45:36;27.20;97.50
2907;DHT22;1463;51.070;16.998;2023-08-24T11:48:06;27.10;94.50
2907;DHT22;1463;51.070;16.998;2023-08-24T11:50:33;27.20;94.60
2907;DHT22;1463;51.070;16.998;2023-08-24T11:53:00;27.30;96.60
2907;DHT22;1463;51.070;16.998;2023-08-24T11:55:31;27.30;94.60
2907;DHT22;1463;51.070;16.998;2023-08-24T11:57:59;27.20;97.20
2907;DHT22;1463;51.070;16.998;2023-08-24T12:00:26;27.20;98.20
2907;DHT22;1463;51.070;16.998;2023-08-24T12:02:53;27.10;96.80
2907;DHT22;1463;51.070;16.998;2023-08-24T12:05:21;27.10;95.80
2907;DHT22;1463;51.070;16.998;2023-08-24T12:07:49;27.10;97.00
2907;DHT22;1463;51.070;16.998;2023-08-24T12:10:16;27.00;95.80
2907;DHT22;1463;51.070;16.998;2023-08-24T12:12:45;27.00;95.60
2907;DHT22;1463;51.070;16.998;2023-08-24T12:15:15;27.10;96.70
2907;DHT22;1463;51.070;16.998;2023-08-24T12:17:43;27.10;95.30
2907;DHT22;1463;51.070;16.998;2023-08-24T12:20:17;27.00;97.60
2907;DHT22;1463;51.070;16.998;2023-08-24T12:22:49;27.00;98.00
2907;DHT22;1463;51.070;16.998;2023-08-24T12:25:17;26.90;98.00
2907;DHT22;1463;51.070;16.998;2023-08-24T12:27:45;26.90;96.60
2907;DHT22;1463;51.070;16.998;2023-08-24T12:30:12;26.90;96.60
2907;DHT22;1463;51.070;16.998;2023-08-24T12:32:43;26.90;95.90
2907;DHT22;1463;51.070;16.998;2023-08-24T12:35:10;26.90;97.50
2907;DHT22;1463;51.070;16.998;2023-08-24T12:37:37;26.90;96.10
2907;DHT22;1463;51.070;16.998;2023-08-24T12:40:04;26.80;97.30
2907;DHT22;1463;51.070;16.998;2023-08-24T12:42:31;26.80;96.60
2907;DHT22;1463;51.070;16.998;2023-08-24T12:45:01;26.80;97.30
2907;DHT22;1463;51.070;16.998;2023-08-24T12:47:30;26.90;96.50
2907;DHT22;1463;51.070;16.998;2023-08-24T12:49:57;26.90;96.70
2907;DHT22;1463;51.070;16.998;2023-08-24T12:52:23;26.80;97.10
2907;DHT22;1463;51.070;16.998;2023-08-24T12:54:50;26.80;96.30
2907;DHT22;1463;51.070;16.998;2023-08-24T12:57:17;26.80;97.50
2907;DHT22;1463;51.070;16.998;2023-08-24T12:59:44;26.80;98.00
2907;DHT22;1463;51.070;16.998;2023-08-24T13:02:14;26.80;97.70
2907;DHT22;1463;51.070;16.998;2023-08-24T13:04:40;26.70;96.50
2907;DHT22;1463;51.070;16.998;2023-08-24T13:07:07;26.70;97.60
2907;DHT22;1463;51.070;16.998;2023-08-24T13:09:34;26.70;97.60
2907;DHT22;1463;51.070;16.998;2023-08-24T13:12:01;26.70;98.40
2907;DHT22;1463;51.070;16.998;2023-08-24T13:14:31;26.60;97.40
2907;DHT22;1463;51.070;16.998;2023-08-24T13:16:58;26.70;98.30
2907;DHT22;1463;51.070;16.998;2023-08-24T13:19:26;26.60;97.00
2907;DHT22;1463;51.070;16.998;2023-08-24T13:21:53;26.60;98.20
2907;DHT22;1463;51.070;16.998;2023-08-24T13:24:19;26.70;97.60
2907;DHT22;1463;51.070;16.998;2023-08-24T13:26:46;26.70;98.30
2907;DHT22;1463;51.070;16.998;2023-08-24T13:29:13;26.80;97.70
2907;DHT22;1463;51.070;16.998;2023-08-24T13:31:40;26.70;96.00
2907;DHT22;1463;51.070;16.998;2023-08-24T13:34:07;26.70;95.30
2907;DHT22;1463;51.070;16.998;2023-08-24T13:36:35;26.70;95.90
2907;DHT22;1463;51.070;16.998;2023-08-24T13:39:02;26.80;96.40
2907;DHT22;1463;51.070;16.998;2023-08-24T13:41:30;26.90;96.90
2907;DHT22;1463;51.070;16.998;2023-08-24T13:43:56;26.90;96.70
2907;DHT22;1463;51.070;16.998;2023-08-24T13:46:23;26.90;94.90
2907;DHT22;1463;51.070;16.998;2023-08-24T13:48:50;26.80;94.70
2907;DHT22;1463;51.070;16.998;2023-08-24T13:51:19;26.70;94.30
2907;DHT22;1463;51.070;16.998;2023-08-24T13:53:47;26.70;94.10
2907;DHT22;1463;51.070;16.998;2023-08-24T13:56:14;26.60;94.40
2907;DHT22;1463;51.070;16.998;2023-08-24T13:58:41;26.60;93.70
2907;DHT22;1463;51.070;16.998;2023-08-24T14:01:07;26.60;94.20
2907;DHT22;1463;51.070;16.998;2023-08-24T14:03:36;26.60;94.40
2907;DHT22;1463;51.070;16.998;2023-08-24T14:06:03;26.60;94.20
2907;DHT22;1463;51.070;16.998;2023-08-24T14:08:30;26.70;93.80
2907;DHT22;1463;51.070;16.998;2023-08-24T14:10:58;26.70;94.10
2907;DHT22;1463;51.070;16.998;2023-08-24T14:13:25;26.80;93.60
2907;DHT22;1463;51.070;16.998;2023-08-24T14:15:52;26.80;92.90
2907;DHT22;1463;51.070;16.998;2023-08-24T14:18:19;26.90;93.00
2907;DHT22;1463;51.070;16.998;2023-08-24T14:20:45;26.80;92.80
2907;DHT22;1463;51.070;16.998;2023-08-24T14:23:12;26.80;93.50
2907;DHT22;1463;51.070;16.998;2023-08-24T14:25:39;26.90;93.80
2907;DHT22;1463;51.070;16.998;2023-08-24T14:28:07;26.90;93.20
2907;DHT22;1463;51.070;16.998;2023-08-24T14:30:34;26.90;93.50
2907;DHT22;1463;51.070;16.998;2023-08-24T14:33:01;26.90;93.30
2907;DHT22;1463;51.070;16.998;2023-08-24T14:35:30;26.80;93.60
2907;DHT22;1463;51.070;16.998;2023-08-24T14:37:58;26.80;93.30
2907;DHT22;1463;51.070;16.998;2023-08-24T14:40:24;26.80;92.50
2907;DHT22;1463;51.070;16.998;2023-08-24T14:42:51;26.80;92.70
2907;DHT22;1463;51.070;16.998;2023-08-24T14:45:20;26.90;94.10
2907;DHT22;1463;51.070;16.998;2023-08-24T14:47:47;26.90;92.90
2907;DHT22;1463;51.070;16.998;2023-08-24T14:50:13;26.80;93.00
2907;DHT22;1463;51.070;16.998;2023-08-24T14:52:40;26.80;93.50
2907;DHT22;1463;51.070;16.998;2023-08-24T14:55:07;26.80;93.60
2907;DHT22;1463;51.070;16.998;2023-08-24T14:57:37;26.80;92.80
2907;DHT22;1463;51.070;16.998;2023-08-24T15:00:08;26.80;92.80
2907;DHT22;1463;51.070;16.998;2023-08-24T15:02:37;26.80;92.80
2907;DHT22;1463;51.070;16.998;2023-08-24T15:05:05;26.80;93.10
2907;DHT22;1463;51.070;16.998;2023-08-24T15:07:32;26.80;93.00
2907;DHT22;1463;51.070;16.998;2023-08-24T15:09:59;26.80;93.10
2907;DHT22;1463;51.070;16.998;2023-08-24T15:12:26;26.80;93.10
2907;DHT22;1463;51.070;16.998;2023-08-24T15:14:59;26.80;93.60
2907;DHT22;1463;51.070;16.998;2023-08-24T15:17:28;26.80;93.20
2907;DHT22;1463;51.070;16.998;2023-08-24T15:19:57;26.80;93.50
2907;DHT22;1463;51.070;16.998;2023-08-24T15:22:26;26.80;93.80
2907;DHT22;1463;51.070;16.998;2023-08-24T15:24:54;26.80;93.00
2907;DHT22;1463;51.070;16.998;2023-08-24T15:27:21;26.80;92.70
2907;DHT22;1463;51.070;16.998;2023-08-24T15:29:48;26.80;92.80
2907;DHT22;1463;51.070;16.998;2023-08-24T15:32:16;26.70;93.20
2907;DHT22;1463;51.070;16.998;2023-08-24T15:34:43;26.80;92.70
2907;DHT22;1463;51.070;16.998;2023-08-24T15:37:13;26.70;92.90
2907;DHT22;1463;51.070;16.998;2023-08-24T15:39:40;26.70;93.00
2907;DHT22;1463;51.070;16.998;2023-08-24T15:42:07;26.70;93.60
2907;DHT22;1463;51.070;16.998;2023-08-24T15:44:34;26.70;93.70
2907;DHT22;1463;51.070;16.998;2023-08-24T15:47:01;26.70;94.00
2907;DHT22;1463;51.070;16.998;2023-08-24T15:49:28;26.60;93.70
2907;DHT22;1463;51.070;16.998;2023-08-24T15:51:55;26.60;93.40